sensor_id;sensor_type;location;lat;lon;timestamp;temperature;humidity
52203;DHT22;38173;52.850;6.970;2024-03-08T00:00:08;1.20;99.90
52203;DHT22;38173;52.850;6.970;2024-03-08T00:02:41;1.20;99.90
52203;DHT22;38173;52.850;6.970;2024-03-08T00:05:07;1.20;99.90
52203;DHT22;38173;52.850;6.970;2024-03-08T00:07:36;1.20;99.90
52203;DHT22;38173;52.850;6.970;2024-03-08T00:10:03;1.10;99.90
52203;DHT22;38173;52.850;6.970;2024-03-08T00:12:29;1.10;99.90
52203;DHT22;38173;52.850;6.970;2024-03-08T00:14:56;1.10;99.90
52203;DHT22;38173;52.850;6.970;2024-03-08T00:17:21;1.00;99.90
52203;DHT22;38173;52.850;6.970;2024-03-08T00:19:54;1.00;99.90
52203;DHT22;38173;52.850;6.970;2024-03-08T00:22:19;1.00;99.90
52203;DHT22;38173;52.850;6.970;2024-03-08T00:24:45;0.90;99.90
52203;DHT22;38173;52.850;6.970;2024-03-08T00:27:11;0.90;99.90
52203;DHT22;38173;52.850;6.970;2024-03-08T00:29:37;0.90;99.90
52203;DHT22;38173;52.850;6.970;2024-03-08T00:32:06;0.90;99.90
52203;DHT22;38173;52.850;6.970;2024-03-08T00:34:35;0.80;99.90
52203;DHT22;38173;52.850;6.970;2024-03-08T00:37:02;0.80;99.90
52203;DHT22;38173;52.850;6.970;2024-03-08T00:39:29;0.80;99.90
52203;DHT22;38173;52.850;6.970;2024-03-08T00:41:54;0.70;99.90
52203;DHT22;38173;52.850;6.970;2024-03-08T00:44:20;0.70;99.90
52203;DHT22;38173;52.850;6.970;2024-03-08T00:46:45;0.80;99.90
52203;DHT22;38173;52.850;6.970;2024-03-08T00:49:11;0.70;99.90
52203;DHT22;38173;52.850;6.970;2024-03-08T00:51:38;0.70;99.90
52203;DHT22;38173;52.850;6.970;2024-03-08T00:54:04;0.60;99.90
52203;DHT22;38173;52.850;6.970;2024-03-08T00:56:29;0.60;99.90
52203;DHT22;38173;52.850;6.970;2024-03-08T00:58:55;0.60;99.90
52203;DHT22;38173;52.850;6.970;2024-03-08T01:01:21;0.60;99.90
52203;DHT22;38173;52.850;6.970;2024-03-08T01:03:46;0.60;99.90
52203;DHT22;38173;52.850;6.970;2024-03-08T01:06:12;0.60;99.90
52203;DHT22;38173;52.850;6.970;2024-03-08T01:08:38;0.60;99.90
52203;DHT22;38173;52.850;6.970;2024-03-08T01:11:06;0.60;99.90
52203;DHT22;38173;52.850;6.970;2024-03-08T01:13:31;0.60;99.90
52203;DHT22;38173;52.850;6.970;2024-03-08T01:15:57;0.60;99.90
52203;DHT22;38173;52.850;6.970;2024-03-08T01:18:23;0.60;99.90
52203;DHT22;38173;52.850;6.970;2024-03-08T01:20:48;0.60;99.90
52203;DHT22;38173;52.850;6.970;2024-03-08T01:23:14;0.60;99.90
52203;DHT22;38173;52.850;6.970;2024-03-08T01:25:40;0.60;99.90
52203;DHT22;38173;52.850;6.970;2024-03-08T01:28:07;0.60;99.90
52203;DHT22;38173;52.850;6.970;2024-03-08T01:30:32;0.50;99.90
52203;DHT22;38173;52.850;6.970;2024-03-08T01:33:00;0.60;99.90
52203;DHT22;38173;52.850;6.970;2024-03-08T01:35:26;0.60;99.90
52203;DHT22;38173;52.850;6.970;2024-03-08T01:37:53;0.60;99.90
52203;DHT22;38173;52.850;6.970;2024-03-08T01:40:18;0.60;99.90
52203;DHT22;38173;52.850;6.970;2024-03-08T01:42:44;0.60;99.90
52203;DHT22;38173;52.850;6.970;2024-03-08T01:45:10;0.50;99.90
52203;DHT22;38173;52.850;6.970;2024-03-08T01:47:37;0.50;99.90
52203;DHT22;38173;52.850;6.970;2024-03-08T01:50:03;0.60;99.90
52203;DHT22;38173;52.850;6.970;2024-03-08T01:52:30;0.60;99.90
52203;DHT22;38173;52.850;6.970;2024-03-08T01:54:59;0.60;99.90
52203;DHT22;38173;52.850;6.970;2024-03-08T01:57:27;0.50;99.90
52203;DHT22;38173;52.850;6.970;2024-03-08T01:59:53;0.50;99.90
52203;DHT22;38173;52.850;6.970;2024-03-08T02:02:22;0.50;99.90
52203;DHT22;38173;52.850;6.970;2024-03-08T02:04:48;0.50;99.90
52203;DHT22;38173;52.850;6.970;2024-03-08T02:07:14;0.50;99.90
52203;DHT22;38173;52.850;6.970;2024-03-08T02:09:39;0.50;99.90
52203;DHT22;38173;52.850;6.970;2024-03-08T02:12:06;0.40;99.90
52203;DHT22;38173;52.850;6.970;2024-03-08T02:14:33;0.40;99.90
52203;DHT22;38173;52.850;6.970;2024-03-08T02:17:02;0.40;99.90
52203;DHT22;38173;52.850;6.970;2024-03-08T02:19:28;0.40;99.90
52203;DHT22;38173;52.850;6.970;2024-03-08T02:21:54;0.40;99.90
52203;DHT22;38173;52.850;6.970;2024-03-08T02:24:20;0.40;99.90
52203;DHT22;38173;52.850;6.970;2024-03-08T02:26:46;0.40;99.90
52203;DHT22;38173;52.850;6.970;2024-03-08T02:29:13;0.40;99.90
52203;DHT22;38173;52.850;6.970;2024-03-08T02:31:40;0.40;99.90
52203;DHT22;38173;52.850;6.970;2024-03-08T02:34:05;0.40;99.90
52203;DHT22;38173;52.850;6.970;2024-03-08T02:36:31;0.40;99.90
52203;DHT22;38173;52.850;6.970;2024-03-08T02:39:02;0.50;99.90
52203;DHT22;38173;52.850;6.970;2024-03-08T02:41:28;0.40;99.90
52203;DHT22;38173;52.850;6.970;2024-03-08T02:43:54;0.40;99.90
52203;DHT22;38173;52.850;6.970;2024-03-08T02:46:21;0.50;99.90
52203;DHT22;38173;52.850;6.970;2024-03-08T02:48:46;0.40;99.90
52203;DHT22;38173;52.850;6.970;2024-03-08T02:51:12;0.40;99.90
52203;DHT22;38173;52.850;6.970;2024-03-08T02:53:39;0.40;99.90
52203;DHT22;38173;52.850;6.970;2024-03-08T02:56:05;0.40;99.90
52203;DHT22;38173;52.850;6.970;2024-03-08T02:58:34;0.40;99.90
52203;DHT22;38173;52.850;6.970;2024-03-08T03:01:00;0.50;99.90
52203;DHT22;38173;52.850;6.970;2024-03-08T03:03:25;0.40;99.90
52203;DHT22;38173;52.850;6.970;2024-03-08T03:05:52;0.40;99.90
52203;DHT22;38173;52.850;6.970;2024-03-08T03:08:21;0.40;99.90
52203;DHT22;38173;52.850;6.970;2024-03-08T03:10:47;0.40;99.90
52203;DHT22;38173;52.850;6.970;2024-03-08T03:13:13;0.30;99.90
52203;DHT22;38173;52.850;6.970;2024-03-08T03:15:39;0.30;99.90
52203;DHT22;38173;52.850;6.970;2024-03-08T03:18:07;0.30;99.90
52203;DHT22;38173;52.850;6.970;2024-03-08T03:20:33;0.30;99.90
52203;DHT22;38173;52.850;6.970;2024-03-08T03:23:05;0.30;99.90
52203;DHT22;38173;52.850;6.970;2024-03-08T03:25:33;0.30;99.90
52203;DHT22;38173;52.850;6.970;2024-03-08T03:28:01;0.30;99.90
52203;DHT22;38173;52.850;6.970;2024-03-08T03:30:27;0.30;99.90
52203;DHT22;38173;52.850;6.970;2024-03-08T03:32:56;0.30;99.90
52203;DHT22;38173;52.850;6.970;2024-03-08T03:35:26;0.30;99.90
52203;DHT22;38173;52.850;6.970;2024-03-08T03:37:52;0.20;99.90
52203;DHT22;38173;52.850;6.970;2024-03-08T03:40:31;0.20;99.90
52203;DHT22;38173;52.850;6.970;2024-03-08T03:42:57;0.20;99.90
52203;DHT22;38173;52.850;6.970;2024-03-08T03:45:23;0.20;99.90
52203;DHT22;38173;52.850;6.970;2024-03-08T03:47:49;0.20;99.90
52203;DHT22;38173;52.850;6.970;2024-03-08T03:50:16;0.20;99.90
52203;DHT22;38173;52.850;6.970;2024-03-08T03:52:41;0.20;99.90
52203;DHT22;38173;52.850;6.970;2024-03-08T03:55:08;0.20;99.90
52203;DHT22;38173;52.850;6.970;2024-03-08T03:57:33;0.10;99.90
52203;DHT22;38173;52.850;6.970;2024-03-08T03:59:59;0.10;99.90
52203;DHT22;38173;52.850;6.970;2024-03-08T04:02:25;0.10;99.90
52203;DHT22;38173;52.850;6.970;2024-03-08T04:04:52;0.10;99.90
52203;DHT22;38173;52.850;6.970;2024-03-08T04:07:20;0.10;99.90
52203;DHT22;38173;52.850;6.970;2024-03-08T04:09:46;0.10;99.90
52203;DHT22;38173;52.850;6.970;2024-03-08T04:12:12;0.10;99.90
52203;DHT22;38173;52.850;6.970;2024-03-08T04:14:40;0.00;99.90
52203;DHT22;38173;52.850;6.970;2024-03-08T04:17:07;0.00;99.90
52203;DHT22;38173;52.850;6.970;2024-03-08T04:19:34;0.00;99.90
52203;DHT22;38173;52.850;6.970;2024-03-08T04:22:00;0.00;99.90
52203;DHT22;38173;52.850;6.970;2024-03-08T04:24:26;0.00;99.90
52203;DHT22;38173;52.850;6.970;2024-03-08T04:26:52;0.00;99.90
52203;DHT22;38173;52.850;6.970;2024-03-08T04:29:18;0.00;99.90
52203;DHT22;38173;52.850;6.970;2024-03-08T04:31:44;-0.10;99.90
52203;DHT22;38173;52.850;6.970;2024-03-08T04:34:10;-0.10;99.90
52203;DHT22;38173;52.850;6.970;2024-03-08T04:36:36;0.00;99.90
52203;DHT22;38173;52.850;6.970;2024-03-08T04:39:02;-0.10;99.90
52203;DHT22;38173;52.850;6.970;2024-03-08T04:41:29;-0.10;99.90
52203;DHT22;38173;52.850;6.970;2024-03-08T04:43:56;-0.10;99.90
52203;DHT22;38173;52.850;6.970;2024-03-08T04:46:23;-0.10;99.90
52203;DHT22;38173;52.850;6.970;2024-03-08T04:48:49;0.00;99.90
52203;DHT22;38173;52.850;6.970;2024-03-08T04:51:15;-0.10;99.90
52203;DHT22;38173;52.850;6.970;2024-03-08T04:53:41;0.00;99.90
52203;DHT22;38173;52.850;6.970;2024-03-08T04:56:07;-0.10;99.90
52203;DHT22;38173;52.850;6.970;2024-03-08T04:58:35;-0.10;99.90
52203;DHT22;38173;52.850;6.970;2024-03-08T05:01:02;-0.10;99.90
52203;DHT22;38173;52.850;6.970;2024-03-08T05:03:27;-0.10;99.90
52203;DHT22;38173;52.850;6.970;2024-03-08T05:05:54;-0.10;99.90
52203;DHT22;38173;52.850;6.970;2024-03-08T05:08:19;-0.10;99.90
52203;DHT22;38173;52.850;6.970;2024-03-08T05:10:45;0.00;99.90
52203;DHT22;38173;52.850;6.970;2024-03-08T05:13:12;-0.10;99.90
52203;DHT22;38173;52.850;6.970;2024-03-08T05:15:38;-0.10;99.90
52203;DHT22;38173;52.850;6.970;2024-03-08T05:18:05;-0.10;99.90
52203;DHT22;38173;52.850;6.970;2024-03-08T05:20:31;-0.10;99.90
52203;DHT22;38173;52.850;6.970;2024-03-08T05:22:57;-0.10;99.90
52203;DHT22;38173;52.850;6.970;2024-03-08T05:25:26;-0.10;99.90
52203;DHT22;38173;52.850;6.970;2024-03-08T05:27:52;-0.20;99.90
52203;DHT22;38173;52.850;6.970;2024-03-08T05:30:18;-0.20;99.90
52203;DHT22;38173;52.850;6.970;2024-03-08T05:32:44;-0.20;99.90
52203;DHT22;38173;52.850;6.970;2024-03-08T05:35:11;-0.20;99.90
52203;DHT22;38173;52.850;6.970;2024-03-08T05:37:38;-0.30;99.90
52203;DHT22;38173;52.850;6.970;2024-03-08T05:40:05;-0.30;99.90
52203;DHT22;38173;52.850;6.970;2024-03-08T05:42:35;-0.30;99.90
52203;DHT22;38173;52.850;6.970;2024-03-08T05:45:04;-0.30;99.90
52203;DHT22;38173;52.850;6.970;2024-03-08T05:47:32;-0.30;99.90
52203;DHT22;38173;52.850;6.970;2024-03-08T05:50:00;-0.20;99.90
52203;DHT22;38173;52.850;6.970;2024-03-08T05:52:27;-0.20;99.90
52203;DHT22;38173;52.850;6.970;2024-03-08T05:54:52;-0.20;99.90
52203;DHT22;38173;52.850;6.970;2024-03-08T05:57:18;-0.20;99.90
52203;DHT22;38173;52.850;6.970;2024-03-08T05:59:44;-0.20;99.90
52203;DHT22;38173;52.850;6.970;2024-03-08T06:02:10;-0.20;99.90
52203;DHT22;38173;52.850;6.970;2024-03-08T06:04:35;-0.20;99.90
52203;DHT22;38173;52.850;6.970;2024-03-08T06:07:01;-0.30;99.90
52203;DHT22;38173;52.850;6.970;2024-03-08T06:09:29;-0.30;99.90
52203;DHT22;38173;52.850;6.970;2024-03-08T06:11:55;-0.30;99.90
52203;DHT22;38173;52.850;6.970;2024-03-08T06:14:22;-0.30;99.90
52203;DHT22;38173;52.850;6.970;2024-03-08T06:16:48;-0.30;99.90
52203;DHT22;38173;52.850;6.970;2024-03-08T06:19:15;-0.30;99.90
52203;DHT22;38173;52.850;6.970;2024-03-08T06:21:41;-0.30;99.90
52203;DHT22;38173;52.850;6.970;2024-03-08T06:24:07;-0.40;99.90
52203;DHT22;38173;52.850;6.970;2024-03-08T06:26:33;-0.30;99.90
52203;DHT22;38173;52.850;6.970;2024-03-08T06:28:59;-0.30;99.90
52203;DHT22;38173;52.850;6.970;2024-03-08T06:31:25;-0.30;99.90
52203;DHT22;38173;52.850;6.970;2024-03-08T06:33:50;-0.20;99.90
52203;DHT22;38173;52.850;6.970;2024-03-08T06:36:17;-0.20;99.90
52203;DHT22;38173;52.850;6.970;2024-03-08T06:38:45;-0.20;99.90
52203;DHT22;38173;52.850;6.970;2024-03-08T06:41:11;-0.20;99.90
52203;DHT22;38173;52.850;6.970;2024-03-08T06:43:47;-0.20;99.90
52203;DHT22;38173;52.850;6.970;2024-03-08T06:46:15;-0.10;99.90
52203;DHT22;38173;52.850;6.970;2024-03-08T06:48:41;-0.10;99.90
52203;DHT22;38173;52.850;6.970;2024-03-08T06:51:07;-0.10;99.90
52203;DHT22;38173;52.850;6.970;2024-03-08T06:53:32;0.00;99.90
52203;DHT22;38173;52.850;6.970;2024-03-08T06:56:01;0.00;99.90
52203;DHT22;38173;52.850;6.970;2024-03-08T06:58:27;0.10;99.90
52203;DHT22;38173;52.850;6.970;2024-03-08T07:00:53;0.10;99.90
52203;DHT22;38173;52.850;6.970;2024-03-08T07:03:19;0.10;99.90
52203;DHT22;38173;52.850;6.970;2024-03-08T07:05:47;0.20;99.90
52203;DHT22;38173;52.850;6.970;2024-03-08T07:08:13;0.20;99.90
52203;DHT22;38173;52.850;6.970;2024-03-08T07:10:40;0.30;99.90
52203;DHT22;38173;52.850;6.970;2024-03-08T07:13:07;0.30;99.90
52203;DHT22;38173;52.850;6.970;2024-03-08T07:15:36;0.30;99.90
52203;DHT22;38173;52.850;6.970;2024-03-08T07:18:02;0.40;99.90
52203;DHT22;38173;52.850;6.970;2024-03-08T07:20:28;0.50;99.90
52203;DHT22;38173;52.850;6.970;2024-03-08T07:22:54;0.60;99.90
52203;DHT22;38173;52.850;6.970;2024-03-08T07:25:20;0.70;99.90
52203;DHT22;38173;52.850;6.970;2024-03-08T07:27:51;0.80;99.90
52203;DHT22;38173;52.850;6.970;2024-03-08T07:30:18;0.80;99.90
52203;DHT22;38173;52.850;6.970;2024-03-08T07:33:02;0.90;99.90
52203;DHT22;38173;52.850;6.970;2024-03-08T07:35:30;1.00;99.90
52203;DHT22;38173;52.850;6.970;2024-03-08T07:37:57;1.10;99.90
52203;DHT22;38173;52.850;6.970;2024-03-08T07:40:23;1.20;99.90
52203;DHT22;38173;52.850;6.970;2024-03-08T07:42:49;1.30;99.90
52203;DHT22;38173;52.850;6.970;2024-03-08T07:45:15;1.30;99.90
52203;DHT22;38173;52.850;6.970;2024-03-08T07:47:42;1.40;99.90
52203;DHT22;38173;52.850;6.970;2024-03-08T07:50:08;1.50;99.90
52203;DHT22;38173;52.850;6.970;2024-03-08T07:52:34;1.50;99.90
52203;DHT22;38173;52.850;6.970;2024-03-08T07:55:01;1.70;99.90
52203;DHT22;38173;52.850;6.970;2024-03-08T07:57:27;1.70;99.90
52203;DHT22;38173;52.850;6.970;2024-03-08T07:59:52;1.80;99.90
52203;DHT22;38173;52.850;6.970;2024-03-08T08:02:18;1.90;99.90
52203;DHT22;38173;52.850;6.970;2024-03-08T08:04:44;1.90;99.90
52203;DHT22;38173;52.850;6.970;2024-03-08T08:07:16;1.90;99.90
52203;DHT22;38173;52.850;6.970;2024-03-08T08:09:42;2.00;99.90
52203;DHT22;38173;52.850;6.970;2024-03-08T08:12:09;2.00;99.90
52203;DHT22;38173;52.850;6.970;2024-03-08T08:14:38;2.10;99.90
52203;DHT22;38173;52.850;6.970;2024-03-08T08:17:04;2.10;99.90
52203;DHT22;38173;52.850;6.970;2024-03-08T08:19:31;2.20;99.90
52203;DHT22;38173;52.850;6.970;2024-03-08T08:21:57;2.20;99.90
52203;DHT22;38173;52.850;6.970;2024-03-08T08:24:24;2.30;99.90
52203;DHT22;38173;52.850;6.970;2024-03-08T08:26:50;2.30;99.90
52203;DHT22;38173;52.850;6.970;2024-03-08T08:29:16;2.40;99.90
52203;DHT22;38173;52.850;6.970;2024-03-08T08:31:41;2.40;99.90
52203;DHT22;38173;52.850;6.970;2024-03-08T08:34:09;2.50;99.90
52203;DHT22;38173;52.850;6.970;2024-03-08T08:36:37;2.60;99.90
52203;DHT22;38173;52.850;6.970;2024-03-08T08:39:05;2.60;99.90
52203;DHT22;38173;52.850;6.970;2024-03-08T08:41:35;2.70;99.90
52203;DHT22;38173;52.850;6.970;2024-03-08T08:44:01;2.70;99.90
52203;DHT22;38173;52.850;6.970;2024-03-08T08:46:27;2.80;99.90
52203;DHT22;38173;52.850;6.970;2024-03-08T08:48:53;2.90;99.90
52203;DHT22;38173;52.850;6.970;2024-03-08T08:51:18;3.00;99.90
52203;DHT22;38173;52.850;6.970;2024-03-08T08:53:44;3.00;99.90
52203;DHT22;38173;52.850;6.970;2024-03-08T08:56:11;3.10;99.90
52203;DHT22;38173;52.850;6.970;2024-03-08T08:58:41;3.20;99.90
52203;DHT22;38173;52.850;6.970;2024-03-08T09:01:08;3.20;99.90
52203;DHT22;38173;52.850;6.970;2024-03-08T09:03:36;3.20;99.90
52203;DHT22;38173;52.850;6.970;2024-03-08T09:06:03;3.40;99.90
52203;DHT22;38173;52.850;6.970;2024-03-08T09:08:29;3.40;99.90
52203;DHT22;38173;52.850;6.970;2024-03-08T09:10:55;3.50;99.90
52203;DHT22;38173;52.850;6.970;2024-03-08T09:13:21;3.60;99.90
52203;DHT22;38173;52.850;6.970;2024-03-08T09:15:47;3.60;99.90
52203;DHT22;38173;52.850;6.970;2024-03-08T09:18:12;3.70;99.90
52203;DHT22;38173;52.850;6.970;2024-03-08T09:20:38;3.80;99.90
52203;DHT22;38173;52.850;6.970;2024-03-08T09:23:06;3.90;99.90
52203;DHT22;38173;52.850;6.970;2024-03-08T09:25:34;4.00;99.90
52203;DHT22;38173;52.850;6.970;2024-03-08T09:27:59;4.10;99.90
52203;DHT22;38173;52.850;6.970;2024-03-08T09:30:25;4.20;99.90
52203;DHT22;38173;52.850;6.970;2024-03-08T09:32:51;4.20;99.90
52203;DHT22;38173;52.850;6.970;2024-03-08T09:35:17;4.30;99.90
52203;DHT22;38173;52.850;6.970;2024-03-08T09:37:42;4.40;99.90
52203;DHT22;38173;52.850;6.970;2024-03-08T09:40:08;4.50;99.90
52203;DHT22;38173;52.850;6.970;2024-03-08T09:42:41;4.60;99.90
52203;DHT22;38173;52.850;6.970;2024-03-08T09:45:11;4.70;99.90
52203;DHT22;38173;52.850;6.970;2024-03-08T09:47:41;4.80;99.90
52203;DHT22;38173;52.850;6.970;2024-03-08T09:50:08;4.80;99.90
52203;DHT22;38173;52.850;6.970;2024-03-08T09:52:40;4.80;99.90
52203;DHT22;38173;52.850;6.970;2024-03-08T09:55:07;5.00;99.90
52203;DHT22;38173;52.850;6.970;2024-03-08T09:57:33;5.00;99.90
52203;DHT22;38173;52.850;6.970;2024-03-08T10:00:00;5.10;99.90
52203;DHT22;38173;52.850;6.970;2024-03-08T10:02:26;5.20;99.90
52203;DHT22;38173;52.850;6.970;2024-03-08T10:04:52;5.30;99.90
52203;DHT22;38173;52.850;6.970;2024-03-08T10:07:19;5.40;99.90
52203;DHT22;38173;52.850;6.970;2024-03-08T10:09:44;5.40;99.90
52203;DHT22;38173;52.850;6.970;2024-03-08T10:12:18;5.60;99.90
52203;DHT22;38173;52.850;6.970;2024-03-08T10:14:45;5.70;99.90
52203;DHT22;38173;52.850;6.970;2024-03-08T10:17:12;5.80;99.90
52203;DHT22;38173;52.850;6.970;2024-03-08T10:19:37;5.90;99.90
52203;DHT22;38173;52.850;6.970;2024-03-08T10:22:05;5.90;99.90
52203;DHT22;38173;52.850;6.970;2024-03-08T10:24:31;6.00;99.90
52203;DHT22;38173;52.850;6.970;2024-03-08T10:27:02;6.00;99.90
52203;DHT22;38173;52.850;6.970;2024-03-08T10:29:31;6.10;99.90
52203;DHT22;38173;52.850;6.970;2024-03-08T10:31:57;6.20;99.90
52203;DHT22;38173;52.850;6.970;2024-03-08T10:34:24;6.30;99.90
52203;DHT22;38173;52.850;6.970;2024-03-08T10:36:51;6.40;99.90
52203;DHT22;38173;52.850;6.970;2024-03-08T10:39:23;6.50;99.90
52203;DHT22;38173;52.850;6.970;2024-03-08T10:41:57;6.60;99.90
52203;DHT22;38173;52.850;6.970;2024-03-08T10:47:00;6.70;99.90
52203;DHT22;38173;52.850;6.970;2024-03-08T10:49:39;6.90;99.90
52203;DHT22;38173;52.850;6.970;2024-03-08T10:52:09;6.90;99.90
52203;DHT22;38173;52.850;6.970;2024-03-08T10:54:37;7.00;99.90
52203;DHT22;38173;52.850;6.970;2024-03-08T10:57:06;7.10;99.90
52203;DHT22;38173;52.850;6.970;2024-03-08T10:59:34;7.20;99.90
52203;DHT22;38173;52.850;6.970;2024-03-08T11:02:01;7.30;99.90
52203;DHT22;38173;52.850;6.970;2024-03-08T11:04:27;7.50;99.90
52203;DHT22;38173;52.850;6.970;2024-03-08T11:07:00;7.60;99.90
52203;DHT22;38173;52.850;6.970;2024-03-08T11:09:35;7.70;99.90
52203;DHT22;38173;52.850;6.970;2024-03-08T11:12:20;7.80;99.90
52203;DHT22;38173;52.850;6.970;2024-03-08T11:14:50;8.00;99.90
52203;DHT22;38173;52.850;6.970;2024-03-08T11:17:20;8.20;99.90
52203;DHT22;38173;52.850;6.970;2024-03-08T11:19:48;8.40;99.90
52203;DHT22;38173;52.850;6.970;2024-03-08T11:22:22;8.50;99.90
52203;DHT22;38173;52.850;6.970;2024-03-08T11:24:52;8.60;99.90
52203;DHT22;38173;52.850;6.970;2024-03-08T11:27:18;8.60;99.90
52203;DHT22;38173;52.850;6.970;2024-03-08T11:29:59;8.60;99.90
52203;DHT22;38173;52.850;6.970;2024-03-08T11:32:29;8.60;99.90
52203;DHT22;38173;52.850;6.970;2024-03-08T11:34:57;8.70;99.90
52203;DHT22;38173;52.850;6.970;2024-03-08T11:37:24;8.70;99.90
52203;DHT22;38173;52.850;6.970;2024-03-08T11:39:54;8.50;99.90
52203;DHT22;38173;52.850;6.970;2024-03-08T11:42:24;8.40;99.90
52203;DHT22;38173;52.850;6.970;2024-03-08T11:44:52;8.20;99.90
52203;DHT22;38173;52.850;6.970;2024-03-08T11:47:18;8.10;99.90
52203;DHT22;38173;52.850;6.970;2024-03-08T11:49:44;8.20;99.90
52203;DHT22;38173;52.850;6.970;2024-03-08T11:52:12;8.40;99.90
52203;DHT22;38173;52.850;6.970;2024-03-08T11:54:39;8.50;99.90
52203;DHT22;38173;52.850;6.970;2024-03-08T11:57:05;8.60;99.90
52203;DHT22;38173;52.850;6.970;2024-03-08T11:59:31;8.80;99.90
52203;DHT22;38173;52.850;6.970;2024-03-08T12:02:05;8.80;99.90
52203;DHT22;38173;52.850;6.970;2024-03-08T12:04:31;8.70;99.90
52203;DHT22;38173;52.850;6.970;2024-03-08T12:07:00;8.60;99.90
52203;DHT22;38173;52.850;6.970;2024-03-08T12:09:28;8.50;99.90
52203;DHT22;38173;52.850;6.970;2024-03-08T12:11:54;8.30;99.90
52203;DHT22;38173;52.850;6.970;2024-03-08T12:14:19;8.30;99.90
52203;DHT22;38173;52.850;6.970;2024-03-08T12:16:46;8.20;99.90
52203;DHT22;38173;52.850;6.970;2024-03-08T12:19:14;8.10;99.90
52203;DHT22;38173;52.850;6.970;2024-03-08T12:21:42;8.00;99.90
52203;DHT22;38173;52.850;6.970;2024-03-08T12:24:16;8.00;99.90
52203;DHT22;38173;52.850;6.970;2024-03-08T12:26:45;8.00;99.90
52203;DHT22;38173;52.850;6.970;2024-03-08T12:31:47;8.10;99.90
52203;DHT22;38173;52.850;6.970;2024-03-08T12:34:13;8.10;99.90
52203;DHT22;38173;52.850;6.970;2024-03-08T12:36:50;8.10;99.90
52203;DHT22;38173;52.850;6.970;2024-03-08T12:39:23;8.20;99.90
52203;DHT22;38173;52.850;6.970;2024-03-08T12:41:53;8.20;99.90
52203;DHT22;38173;52.850;6.970;2024-03-08T12:44:19;8.20;99.90
52203;DHT22;38173;52.850;6.970;2024-03-08T12:46:47;8.30;99.90
52203;DHT22;38173;52.850;6.970;2024-03-08T12:49:14;8.40;99.90
52203;DHT22;38173;52.850;6.970;2024-03-08T12:51:44;8.40;99.90
52203;DHT22;38173;52.850;6.970;2024-03-08T12:54:09;8.40;99.90
52203;DHT22;38173;52.850;6.970;2024-03-08T12:56:36;8.40;99.90
52203;DHT22;38173;52.850;6.970;2024-03-08T12:59:07;8.40;99.90
52203;DHT22;38173;52.850;6.970;2024-03-08T13:01:33;8.40;99.90
52203;DHT22;38173;52.850;6.970;2024-03-08T13:03:59;8.40;99.90
52203;DHT22;38173;52.850;6.970;2024-03-08T13:06:27;8.40;99.90
52203;DHT22;38173;52.850;6.970;2024-03-08T13:08:54;8.30;99.90
52203;DHT22;38173;52.850;6.970;2024-03-08T13:11:24;8.30;99.90
52203;DHT22;38173;52.850;6.970;2024-03-08T13:13:53;8.30;99.90
52203;DHT22;38173;52.850;6.970;2024-03-08T13:16:19;8.30;99.90
52203;DHT22;38173;52.850;6.970;2024-03-08T13:18:46;8.30;99.90
52203;DHT22;38173;52.850;6.970;2024-03-08T13:21:14;8.30;99.90
52203;DHT22;38173;52.850;6.970;2024-03-08T13:23:44;8.30;99.90
52203;DHT22;38173;52.850;6.970;2024-03-08T13:26:15;8.40;99.90
52203;DHT22;38173;52.850;6.970;2024-03-08T13:28:48;8.40;99.90
52203;DHT22;38173;52.850;6.970;2024-03-08T13:31:20;8.40;99.90
52203;DHT22;38173;52.850;6.970;2024-03-08T13:33:46;8.40;99.90
52203;DHT22;38173;52.850;6.970;2024-03-08T13:36:16;8.50;99.90
52203;DHT22;38173;52.850;6.970;2024-03-08T13:38:47;8.50;99.90
52203;DHT22;38173;52.850;6.970;2024-03-08T13:41:14;8.60;99.90
52203;DHT22;38173;52.850;6.970;2024-03-08T13:43:45;8.50;99.90
52203;DHT22;38173;52.850;6.970;2024-03-08T13:46:11;8.50;99.90
52203;DHT22;38173;52.850;6.970;2024-03-08T13:48:37;8.40;99.90
52203;DHT22;38173;52.850;6.970;2024-03-08T13:51:06;8.50;99.90
52203;DHT22;38173;52.850;6.970;2024-03-08T13:53:33;8.60;99.90
52203;DHT22;38173;52.850;6.970;2024-03-08T13:56:04;8.70;99.90
52203;DHT22;38173;52.850;6.970;2024-03-08T13:58:33;8.70;99.90
52203;DHT22;38173;52.850;6.970;2024-03-08T14:01:01;8.70;99.90
52203;DHT22;38173;52.850;6.970;2024-03-08T14:03:28;8.70;99.90
52203;DHT22;38173;52.850;6.970;2024-03-08T14:05:54;8.60;99.90
52203;DHT22;38173;52.850;6.970;2024-03-08T14:08:21;8.80;99.90
52203;DHT22;38173;52.850;6.970;2024-03-08T14:10:50;9.00;99.90
52203;DHT22;38173;52.850;6.970;2024-03-08T14:13:17;9.10;99.90
52203;DHT22;38173;52.850;6.970;2024-03-08T14:15:44;9.30;99.90
52203;DHT22;38173;52.850;6.970;2024-03-08T14:18:12;9.40;99.90
52203;DHT22;38173;52.850;6.970;2024-03-08T14:20:41;9.40;99.90
52203;DHT22;38173;52.850;6.970;2024-03-08T14:23:07;9.30;99.90
52203;DHT22;38173;52.850;6.970;2024-03-08T14:25:33;9.10;99.90
52203;DHT22;38173;52.850;6.970;2024-03-08T14:27:59;9.00;99.90
52203;DHT22;38173;52.850;6.970;2024-03-08T14:30:31;9.00;99.90
52203;DHT22;38173;52.850;6.970;2024-03-08T14:32:58;9.20;99.90
52203;DHT22;38173;52.850;6.970;2024-03-08T14:35:26;9.40;99.90
52203;DHT22;38173;52.850;6.970;2024-03-08T14:37:52;9.60;99.90
52203;DHT22;38173;52.850;6.970;2024-03-08T14:40:18;9.60;99.90
52203;DHT22;38173;52.850;6.970;2024-03-08T14:42:48;9.70;99.90
52203;DHT22;38173;52.850;6.970;2024-03-08T14:45:17;9.80;99.90
52203;DHT22;38173;52.850;6.970;2024-03-08T14:47:49;9.80;99.90
52203;DHT22;38173;52.850;6.970;2024-03-08T14:50:22;9.90;99.90
52203;DHT22;38173;52.850;6.970;2024-03-08T14:52:49;9.90;99.90
52203;DHT22;38173;52.850;6.970;2024-03-08T14:55:20;9.90;99.90
52203;DHT22;38173;52.850;6.970;2024-03-08T14:57:50;9.80;99.90
52203;DHT22;38173;52.850;6.970;2024-03-08T15:00:18;9.80;99.90
52203;DHT22;38173;52.850;6.970;2024-03-08T15:02:59;9.80;99.90
52203;DHT22;38173;52.850;6.970;2024-03-08T15:05:25;9.70;99.90
52203;DHT22;38173;52.850;6.970;2024-03-08T15:07:54;9.60;99.90
52203;DHT22;38173;52.850;6.970;2024-03-08T15:10:20;9.50;99.90
52203;DHT22;38173;52.850;6.970;2024-03-08T15:12:50;9.40;99.90
52203;DHT22;38173;52.850;6.970;2024-03-08T15:15:20;9.30;99.90
52203;DHT22;38173;52.850;6.970;2024-03-08T15:17:46;9.20;99.90
52203;DHT22;38173;52.850;6.970;2024-03-08T15:20:13;9.20;99.90
52203;DHT22;38173;52.850;6.970;2024-03-08T15:22:43;9.20;99.90
52203;DHT22;38173;52.850;6.970;2024-03-08T15:25:13;9.40;99.90
52203;DHT22;38173;52.850;6.970;2024-03-08T15:27:46;9.60;99.90
52203;DHT22;38173;52.850;6.970;2024-03-08T15:30:12;9.70;99.90
52203;DHT22;38173;52.850;6.970;2024-03-08T15:32:49;9.70;99.90
52203;DHT22;38173;52.850;6.970;2024-03-08T15:35:16;9.70;99.90
52203;DHT22;38173;52.850;6.970;2024-03-08T15:37:45;9.70;99.90
52203;DHT22;38173;52.850;6.970;2024-03-08T15:40:12;9.70;99.90
52203;DHT22;38173;52.850;6.970;2024-03-08T15:42:57;9.70;99.90
52203;DHT22;38173;52.850;6.970;2024-03-08T15:45:23;9.50;99.90
52203;DHT22;38173;52.850;6.970;2024-03-08T15:47:50;9.50;99.90
52203;DHT22;38173;52.850;6.970;2024-03-08T15:50:16;9.60;99.90